sensor_id;sensor_type;location;lat;lon;timestamp;temperature;humidity
78514;SHT31;67814;51.976;5.810;2023-08-12T00:02:17;23.5;72.8
78514;SHT31;67814;51.976;5.810;2023-08-12T00:04:47;23.5;72.8
78514;SHT31;67814;51.976;5.810;2023-08-12T00:07:15;23.5;72.9
78514;SHT31;67814;51.976;5.810;2023-08-12T00:09:43;23.5;72.9
78514;SHT31;67814;51.976;5.810;2023-08-12T00:12:12;23.5;72.9
78514;SHT31;67814;51.976;5.810;2023-08-12T00:14:40;23.5;73.1
78514;SHT31;67814;51.976;5.810;2023-08-12T00:17:09;23.5;73.1
78514;SHT31;67814;51.976;5.810;2023-08-12T00:19:37;23.5;73.0
78514;SHT31;67814;51.976;5.810;2023-08-12T00:22:07;23.5;73.0
78514;SHT31;67814;51.976;5.810;2023-08-12T00:24:36;23.5;73.1
78514;SHT31;67814;51.976;5.810;2023-08-12T00:27:04;23.5;73.1
78514;SHT31;67814;51.976;5.810;2023-08-12T00:29:32;23.5;73.2
78514;SHT31;67814;51.976;5.810;2023-08-12T00:32:01;23.5;73.1
78514;SHT31;67814;51.976;5.810;2023-08-12T00:34:30;23.5;73.2
78514;SHT31;67814;51.976;5.810;2023-08-12T00:36:58;23.5;73.3
78514;SHT31;67814;51.976;5.810;2023-08-12T00:39:27;23.5;73.3
78514;SHT31;67814;51.976;5.810;2023-08-12T00:41:55;23.5;73.3
78514;SHT31;67814;51.976;5.810;2023-08-12T00:44:24;23.5;73.4
78514;SHT31;67814;51.976;5.810;2023-08-12T00:46:52;23.5;73.6
78514;SHT31;67814;51.976;5.810;2023-08-12T00:49:21;23.4;73.7
78514;SHT31;67814;51.976;5.810;2023-08-12T00:51:54;23.4;73.7
78514;SHT31;67814;51.976;5.810;2023-08-12T00:54:24;23.4;73.7
78514;SHT31;67814;51.976;5.810;2023-08-12T00:56:53;23.5;73.8
78514;SHT31;67814;51.976;5.810;2023-08-12T00:59:22;23.5;73.8
78514;SHT31;67814;51.976;5.810;2023-08-12T01:01:51;23.5;73.8
78514;SHT31;67814;51.976;5.810;2023-08-12T01:04:19;23.5;73.7
78514;SHT31;67814;51.976;5.810;2023-08-12T01:06:48;23.5;73.5
78514;SHT31;67814;51.976;5.810;2023-08-12T01:09:16;23.5;73.5
78514;SHT31;67814;51.976;5.810;2023-08-12T01:11:51;23.5;73.6
78514;SHT31;67814;51.976;5.810;2023-08-12T01:14:28;23.5;73.5
78514;SHT31;67814;51.976;5.810;2023-08-12T01:17:03;23.5;73.6
78514;SHT31;67814;51.976;5.810;2023-08-12T01:19:35;23.5;73.7
78514;SHT31;67814;51.976;5.810;2023-08-12T01:22:08;23.5;73.6
78514;SHT31;67814;51.976;5.810;2023-08-12T01:24:39;23.5;73.6
78514;SHT31;67814;51.976;5.810;2023-08-12T01:27:09;23.5;73.5
78514;SHT31;67814;51.976;5.810;2023-08-12T01:29:43;23.4;73.4
78514;SHT31;67814;51.976;5.810;2023-08-12T01:32:21;23.4;73.5
78514;SHT31;67814;51.976;5.810;2023-08-12T01:35:00;23.4;73.5
78514;SHT31;67814;51.976;5.810;2023-08-12T01:37:31;23.4;73.4
78514;SHT31;67814;51.976;5.810;2023-08-12T01:40:02;23.4;73.4
78514;SHT31;67814;51.976;5.810;2023-08-12T01:42:32;23.4;73.5
78514;SHT31;67814;51.976;5.810;2023-08-12T01:45:02;23.4;73.6
78514;SHT31;67814;51.976;5.810;2023-08-12T01:47:30;23.4;73.7
78514;SHT31;67814;51.976;5.810;2023-08-12T01:49:59;23.4;73.7
78514;SHT31;67814;51.976;5.810;2023-08-12T01:52:30;23.4;73.7
78514;SHT31;67814;51.976;5.810;2023-08-12T01:54:58;23.4;73.7
78514;SHT31;67814;51.976;5.810;2023-08-12T01:57:26;23.3;73.8
78514;SHT31;67814;51.976;5.810;2023-08-12T01:59:55;23.3;73.7
78514;SHT31;67814;51.976;5.810;2023-08-12T02:02:23;23.3;73.6
78514;SHT31;67814;51.976;5.810;2023-08-12T02:04:52;23.3;73.6
78514;SHT31;67814;51.976;5.810;2023-08-12T02:07:20;23.3;73.5
78514;SHT31;67814;51.976;5.810;2023-08-12T02:09:50;23.3;73.6
78514;SHT31;67814;51.976;5.810;2023-08-12T02:12:19;23.3;73.7
78514;SHT31;67814;51.976;5.810;2023-08-12T02:14:47;23.3;73.5
78514;SHT31;67814;51.976;5.810;2023-08-12T02:17:16;23.3;73.6
78514;SHT31;67814;51.976;5.810;2023-08-12T02:19:44;23.3;73.7
78514;SHT31;67814;51.976;5.810;2023-08-12T02:22:12;23.3;73.7
78514;SHT31;67814;51.976;5.810;2023-08-12T02:24:41;23.3;73.8
78514;SHT31;67814;51.976;5.810;2023-08-12T02:27:09;23.3;74.0
78514;SHT31;67814;51.976;5.810;2023-08-12T02:29:38;23.3;74.1
78514;SHT31;67814;51.976;5.810;2023-08-12T02:32:08;23.3;74.0
78514;SHT31;67814;51.976;5.810;2023-08-12T02:34:36;23.3;73.9
78514;SHT31;67814;51.976;5.810;2023-08-12T02:37:05;23.3;73.9
78514;SHT31;67814;51.976;5.810;2023-08-12T02:39:33;23.3;73.9
78514;SHT31;67814;51.976;5.810;2023-08-12T02:42:02;23.3;74.0
78514;SHT31;67814;51.976;5.810;2023-08-12T02:44:30;23.3;74.1
78514;SHT31;67814;51.976;5.810;2023-08-12T02:46:59;23.3;74.2
78514;SHT31;67814;51.976;5.810;2023-08-12T02:49:27;23.3;74.2
78514;SHT31;67814;51.976;5.810;2023-08-12T02:51:56;23.3;74.4
78514;SHT31;67814;51.976;5.810;2023-08-12T02:54:26;23.3;74.3
78514;SHT31;67814;51.976;5.810;2023-08-12T02:56:54;23.3;74.3
78514;SHT31;67814;51.976;5.810;2023-08-12T02:59:23;23.3;74.4
78514;SHT31;67814;51.976;5.810;2023-08-12T03:01:52;23.3;74.5
78514;SHT31;67814;51.976;5.810;2023-08-12T03:04:20;23.3;74.6
78514;SHT31;67814;51.976;5.810;2023-08-12T03:06:49;23.3;74.4
78514;SHT31;67814;51.976;5.810;2023-08-12T03:09:17;23.3;74.5
78514;SHT31;67814;51.976;5.810;2023-08-12T03:11:46;23.3;74.7
78514;SHT31;67814;51.976;5.810;2023-08-12T03:14:15;23.3;74.5
78514;SHT31;67814;51.976;5.810;2023-08-12T03:16:43;23.3;74.5
78514;SHT31;67814;51.976;5.810;2023-08-12T03:19:11;23.3;74.6
78514;SHT31;67814;51.976;5.810;2023-08-12T03:21:40;23.3;74.6
78514;SHT31;67814;51.976;5.810;2023-08-12T03:24:08;23.3;74.6
78514;SHT31;67814;51.976;5.810;2023-08-12T03:26:37;23.3;74.7
78514;SHT31;67814;51.976;5.810;2023-08-12T03:29:05;23.3;74.8
78514;SHT31;67814;51.976;5.810;2023-08-12T03:31:33;23.3;74.7
78514;SHT31;67814;51.976;5.810;2023-08-12T03:34:04;23.3;74.8
78514;SHT31;67814;51.976;5.810;2023-08-12T03:36:32;23.3;74.6
78514;SHT31;67814;51.976;5.810;2023-08-12T03:39:01;23.3;74.7
78514;SHT31;67814;51.976;5.810;2023-08-12T03:41:29;23.3;74.6
78514;SHT31;67814;51.976;5.810;2023-08-12T03:43:58;23.3;74.9
78514;SHT31;67814;51.976;5.810;2023-08-12T03:46:26;23.3;74.9
78514;SHT31;67814;51.976;5.810;2023-08-12T03:48:54;23.3;75.0
78514;SHT31;67814;51.976;5.810;2023-08-12T03:51:23;23.3;75.1
78514;SHT31;67814;51.976;5.810;2023-08-12T03:53:51;23.3;75.1
78514;SHT31;67814;51.976;5.810;2023-08-12T03:56:19;23.3;75.1
78514;SHT31;67814;51.976;5.810;2023-08-12T03:58:48;23.3;75.1
78514;SHT31;67814;51.976;5.810;2023-08-12T04:01:16;23.3;75.1
78514;SHT31;67814;51.976;5.810;2023-08-12T04:03:44;23.3;75.1
78514;SHT31;67814;51.976;5.810;2023-08-12T04:06:13;23.3;75.1
78514;SHT31;67814;51.976;5.810;2023-08-12T04:08:41;23.3;75.2
78514;SHT31;67814;51.976;5.810;2023-08-12T04:11:10;23.3;75.1
78514;SHT31;67814;51.976;5.810;2023-08-12T04:13:38;23.3;75.2
78514;SHT31;67814;51.976;5.810;2023-08-12T04:16:06;23.3;75.1
78514;SHT31;67814;51.976;5.810;2023-08-12T04:18:35;23.3;75.2
78514;SHT31;67814;51.976;5.810;2023-08-12T04:21:03;23.3;75.3
78514;SHT31;67814;51.976;5.810;2023-08-12T04:23:32;23.3;75.2
78514;SHT31;67814;51.976;5.810;2023-08-12T04:26:00;23.3;75.4
78514;SHT31;67814;51.976;5.810;2023-08-12T04:28:28;23.2;75.5
78514;SHT31;67814;51.976;5.810;2023-08-12T04:30:57;23.2;75.4
78514;SHT31;67814;51.976;5.810;2023-08-12T04:33:25;23.2;75.6
78514;SHT31;67814;51.976;5.810;2023-08-12T04:35:54;23.2;75.6
78514;SHT31;67814;51.976;5.810;2023-08-12T04:38:23;23.2;75.6
78514;SHT31;67814;51.976;5.810;2023-08-12T04:40:52;23.2;75.7
78514;SHT31;67814;51.976;5.810;2023-08-12T04:43:21;23.2;75.7
78514;SHT31;67814;51.976;5.810;2023-08-12T04:45:51;23.2;75.8
78514;SHT31;67814;51.976;5.810;2023-08-12T04:48:20;23.2;75.8
78514;SHT31;67814;51.976;5.810;2023-08-12T04:50:48;23.2;75.9
78514;SHT31;67814;51.976;5.810;2023-08-12T04:53:17;23.3;75.8
78514;SHT31;67814;51.976;5.810;2023-08-12T04:55:51;23.3;76.0
78514;SHT31;67814;51.976;5.810;2023-08-12T04:58:20;23.3;75.7
78514;SHT31;67814;51.976;5.810;2023-08-12T05:00:49;23.3;75.8
78514;SHT31;67814;51.976;5.810;2023-08-12T05:03:18;23.3;76.0
78514;SHT31;67814;51.976;5.810;2023-08-12T05:05:50;23.3;76.3
78514;SHT31;67814;51.976;5.810;2023-08-12T05:08:19;23.3;76.2
78514;SHT31;67814;51.976;5.810;2023-08-12T05:10:48;23.3;76.4
78514;SHT31;67814;51.976;5.810;2023-08-12T05:13:17;23.3;76.1
78514;SHT31;67814;51.976;5.810;2023-08-12T05:15:47;23.3;76.0
78514;SHT31;67814;51.976;5.810;2023-08-12T05:18:16;23.4;75.9
78514;SHT31;67814;51.976;5.810;2023-08-12T05:20:44;23.4;75.7
78514;SHT31;67814;51.976;5.810;2023-08-12T05:23:13;23.4;75.4
78514;SHT31;67814;51.976;5.810;2023-08-12T05:25:43;23.4;75.3
78514;SHT31;67814;51.976;5.810;2023-08-12T05:28:12;23.4;74.8
78514;SHT31;67814;51.976;5.810;2023-08-12T05:30:40;23.4;74.8
78514;SHT31;67814;51.976;5.810;2023-08-12T05:33:10;23.3;74.9
78514;SHT31;67814;51.976;5.810;2023-08-12T05:35:39;23.3;75.0
78514;SHT31;67814;51.976;5.810;2023-08-12T05:38:07;23.3;75.0
78514;SHT31;67814;51.976;5.810;2023-08-12T05:40:36;23.2;75.2
78514;SHT31;67814;51.976;5.810;2023-08-12T05:43:04;23.2;75.5
78514;SHT31;67814;51.976;5.810;2023-08-12T05:45:32;23.1;75.7
78514;SHT31;67814;51.976;5.810;2023-08-12T05:48:01;23.0;76.2
78514;SHT31;67814;51.976;5.810;2023-08-12T05:50:29;23.0;76.6
78514;SHT31;67814;51.976;5.810;2023-08-12T05:52:58;22.9;76.8
78514;SHT31;67814;51.976;5.810;2023-08-12T05:55:26;22.8;77.1
78514;SHT31;67814;51.976;5.810;2023-08-12T05:57:54;22.8;77.2
78514;SHT31;67814;51.976;5.810;2023-08-12T06:00:23;22.7;77.5
78514;SHT31;67814;51.976;5.810;2023-08-12T06:02:51;22.7;77.6
78514;SHT31;67814;51.976;5.810;2023-08-12T06:05:20;22.6;77.8
78514;SHT31;67814;51.976;5.810;2023-08-12T06:07:48;22.5;78.0
78514;SHT31;67814;51.976;5.810;2023-08-12T06:10:16;22.5;78.0
78514;SHT31;67814;51.976;5.810;2023-08-12T06:12:45;22.4;78.5
78514;SHT31;67814;51.976;5.810;2023-08-12T06:15:13;22.4;78.6
78514;SHT31;67814;51.976;5.810;2023-08-12T06:17:41;22.4;78.7
78514;SHT31;67814;51.976;5.810;2023-08-12T06:20:10;22.3;78.7
78514;SHT31;67814;51.976;5.810;2023-08-12T06:22:39;22.3;78.9
78514;SHT31;67814;51.976;5.810;2023-08-12T06:25:08;22.3;78.9
78514;SHT31;67814;51.976;5.810;2023-08-12T06:27:38;22.3;79.0
78514;SHT31;67814;51.976;5.810;2023-08-12T06:30:07;22.3;78.8
78514;SHT31;67814;51.976;5.810;2023-08-12T06:32:37;22.3;79.0
78514;SHT31;67814;51.976;5.810;2023-08-12T06:35:08;22.2;78.7
78514;SHT31;67814;51.976;5.810;2023-08-12T06:37:39;22.2;79.0
78514;SHT31;67814;51.976;5.810;2023-08-12T06:40:08;22.2;79.0
78514;SHT31;67814;51.976;5.810;2023-08-12T06:42:37;22.2;79.1
78514;SHT31;67814;51.976;5.810;2023-08-12T06:45:06;22.2;79.2
78514;SHT31;67814;51.976;5.810;2023-08-12T06:47:34;22.2;79.3
78514;SHT31;67814;51.976;5.810;2023-08-12T06:50:04;22.2;79.5
78514;SHT31;67814;51.976;5.810;2023-08-12T06:52:32;22.2;79.2
78514;SHT31;67814;51.976;5.810;2023-08-12T06:55:00;22.2;79.3
78514;SHT31;67814;51.976;5.810;2023-08-12T06:57:29;22.2;78.8
78514;SHT31;67814;51.976;5.810;2023-08-12T06:59:57;22.2;79.2
78514;SHT31;67814;51.976;5.810;2023-08-12T07:02:26;22.2;78.8
78514;SHT31;67814;51.976;5.810;2023-08-12T07:04:54;22.2;79.1
78514;SHT31;67814;51.976;5.810;2023-08-12T07:07:22;22.2;79.1
78514;SHT31;67814;51.976;5.810;2023-08-12T07:09:51;22.2;79.2
78514;SHT31;67814;51.976;5.810;2023-08-12T07:12:19;22.2;79.2
78514;SHT31;67814;51.976;5.810;2023-08-12T07:14:47;22.2;79.1
78514;SHT31;67814;51.976;5.810;2023-08-12T07:17:16;22.2;79.2
78514;SHT31;67814;51.976;5.810;2023-08-12T07:19:45;22.2;79.1
78514;SHT31;67814;51.976;5.810;2023-08-12T07:22:13;22.2;79.2
78514;SHT31;67814;51.976;5.810;2023-08-12T07:24:44;22.2;79.0
78514;SHT31;67814;51.976;5.810;2023-08-12T07:27:13;22.2;79.2
78514;SHT31;67814;51.976;5.810;2023-08-12T07:29:41;22.2;79.1
78514;SHT31;67814;51.976;5.810;2023-08-12T07:32:10;22.2;79.1
78514;SHT31;67814;51.976;5.810;2023-08-12T07:34:38;22.2;79.6
78514;SHT31;67814;51.976;5.810;2023-08-12T07:37:07;22.2;79.2
78514;SHT31;67814;51.976;5.810;2023-08-12T07:39:37;22.2;79.3
78514;SHT31;67814;51.976;5.810;2023-08-12T07:42:07;22.2;79.2
78514;SHT31;67814;51.976;5.810;2023-08-12T07:44:35;22.2;79.3
78514;SHT31;67814;51.976;5.810;2023-08-12T07:47:04;22.2;79.0
78514;SHT31;67814;51.976;5.810;2023-08-12T07:49:33;22.2;78.9
78514;SHT31;67814;51.976;5.810;2023-08-12T07:52:01;22.2;78.9
78514;SHT31;67814;51.976;5.810;2023-08-12T07:54:29;22.2;79.2
78514;SHT31;67814;51.976;5.810;2023-08-12T07:56:58;22.2;79.4
78514;SHT31;67814;51.976;5.810;2023-08-12T07:59:26;22.2;79.4
78514;SHT31;67814;51.976;5.810;2023-08-12T08:01:54;22.2;79.6
78514;SHT31;67814;51.976;5.810;2023-08-12T08:04:23;22.2;79.8
78514;SHT31;67814;51.976;5.810;2023-08-12T08:06:51;22.2;79.8
78514;SHT31;67814;51.976;5.810;2023-08-12T08:09:20;22.1;79.9
78514;SHT31;67814;51.976;5.810;2023-08-12T08:11:48;22.1;79.9
78514;SHT31;67814;51.976;5.810;2023-08-12T08:14:17;22.1;79.7
78514;SHT31;67814;51.976;5.810;2023-08-12T08:16:46;22.1;79.8
78514;SHT31;67814;51.976;5.810;2023-08-12T08:19:14;22.1;80.2
78514;SHT31;67814;51.976;5.810;2023-08-12T08:21:43;22.1;80.3
78514;SHT31;67814;51.976;5.810;2023-08-12T08:24:11;22.2;80.4
78514;SHT31;67814;51.976;5.810;2023-08-12T08:26:40;22.2;80.3
78514;SHT31;67814;51.976;5.810;2023-08-12T08:29:08;22.2;80.2
78514;SHT31;67814;51.976;5.810;2023-08-12T08:31:37;22.2;80.0
78514;SHT31;67814;51.976;5.810;2023-08-12T08:34:06;22.2;80.4
78514;SHT31;67814;51.976;5.810;2023-08-12T08:36:36;22.2;80.3
78514;SHT31;67814;51.976;5.810;2023-08-12T08:39:04;22.3;80.4
78514;SHT31;67814;51.976;5.810;2023-08-12T08:41:38;22.3;80.7
78514;SHT31;67814;51.976;5.810;2023-08-12T08:44:08;22.3;80.7
78514;SHT31;67814;51.976;5.810;2023-08-12T08:46:37;22.3;80.8
78514;SHT31;67814;51.976;5.810;2023-08-12T08:49:06;22.4;80.8
78514;SHT31;67814;51.976;5.810;2023-08-12T08:51:35;22.4;80.3
78514;SHT31;67814;51.976;5.810;2023-08-12T08:54:04;22.4;80.3
78514;SHT31;67814;51.976;5.810;2023-08-12T08:56:33;22.5;80.1
78514;SHT31;67814;51.976;5.810;2023-08-12T08:59:02;22.5;79.9
78514;SHT31;67814;51.976;5.810;2023-08-12T09:01:31;22.5;79.7
78514;SHT31;67814;51.976;5.810;2023-08-12T09:04:00;22.5;79.5
78514;SHT31;67814;51.976;5.810;2023-08-12T09:06:31;22.5;79.8
78514;SHT31;67814;51.976;5.810;2023-08-12T09:09:01;22.6;79.9
78514;SHT31;67814;51.976;5.810;2023-08-12T09:11:35;22.6;79.8
78514;SHT31;67814;51.976;5.810;2023-08-12T09:14:04;22.6;80.3
78514;SHT31;67814;51.976;5.810;2023-08-12T09:16:33;22.6;79.8
78514;SHT31;67814;51.976;5.810;2023-08-12T09:19:03;22.6;79.6
78514;SHT31;67814;51.976;5.810;2023-08-12T09:21:31;22.6;79.8
78514;SHT31;67814;51.976;5.810;2023-08-12T09:24:02;22.7;79.8
78514;SHT31;67814;51.976;5.810;2023-08-12T09:26:31;22.7;79.3
78514;SHT31;67814;51.976;5.810;2023-08-12T09:29:00;22.7;79.9
78514;SHT31;67814;51.976;5.810;2023-08-12T09:31:30;22.8;79.6
78514;SHT31;67814;51.976;5.810;2023-08-12T09:34:02;22.8;79.2
78514;SHT31;67814;51.976;5.810;2023-08-12T09:36:33;22.9;78.9
78514;SHT31;67814;51.976;5.810;2023-08-12T09:39:05;22.9;79.4
78514;SHT31;67814;51.976;5.810;2023-08-12T09:41:35;23.0;80.1
78514;SHT31;67814;51.976;5.810;2023-08-12T09:44:03;23.1;79.6
78514;SHT31;67814;51.976;5.810;2023-08-12T09:46:32;23.2;78.8
78514;SHT31;67814;51.976;5.810;2023-08-12T09:49:01;23.3;78.1
78514;SHT31;67814;51.976;5.810;2023-08-12T09:51:35;23.4;79.2
78514;SHT31;67814;51.976;5.810;2023-08-12T09:54:10;23.5;77.6
78514;SHT31;67814;51.976;5.810;2023-08-12T09:56:41;23.5;76.6
78514;SHT31;67814;51.976;5.810;2023-08-12T09:59:11;23.6;76.2
78514;SHT31;67814;51.976;5.810;2023-08-12T10:01:43;23.7;77.2
78514;SHT31;67814;51.976;5.810;2023-08-12T10:04:14;23.7;77.4
78514;SHT31;67814;51.976;5.810;2023-08-12T10:06:46;23.8;77.3
78514;SHT31;67814;51.976;5.810;2023-08-12T10:09:16;23.9;77.8
78514;SHT31;67814;51.976;5.810;2023-08-12T10:11:46;24.0;77.1
78514;SHT31;67814;51.976;5.810;2023-08-12T10:14:15;24.1;75.5
78514;SHT31;67814;51.976;5.810;2023-08-12T10:16:46;24.1;75.9
78514;SHT31;67814;51.976;5.810;2023-08-12T10:19:16;24.2;75.7
78514;SHT31;67814;51.976;5.810;2023-08-12T10:21:48;24.3;73.2
78514;SHT31;67814;51.976;5.810;2023-08-12T10:24:17;24.3;73.7
78514;SHT31;67814;51.976;5.810;2023-08-12T10:26:46;24.3;72.8
78514;SHT31;67814;51.976;5.810;2023-08-12T10:29:15;24.3;71.5
78514;SHT31;67814;51.976;5.810;2023-08-12T10:31:44;24.3;68.7
78514;SHT31;67814;51.976;5.810;2023-08-12T10:34:20;24.2;68.8
78514;SHT31;67814;51.976;5.810;2023-08-12T10:36:48;24.1;68.8
78514;SHT31;67814;51.976;5.810;2023-08-12T10:39:25;24.0;69.0
78514;SHT31;67814;51.976;5.810;2023-08-12T10:41:56;23.9;70.3
78514;SHT31;67814;51.976;5.810;2023-08-12T10:44:40;23.8;70.7
78514;SHT31;67814;51.976;5.810;2023-08-12T10:47:10;23.8;70.9
78514;SHT31;67814;51.976;5.810;2023-08-12T10:49:43;23.7;69.9
78514;SHT31;67814;51.976;5.810;2023-08-12T10:52:28;23.7;70.1
78514;SHT31;67814;51.976;5.810;2023-08-12T10:55:20;23.6;71.2
78514;SHT31;67814;51.976;5.810;2023-08-12T10:57:50;23.6;71.2
78514;SHT31;67814;51.976;5.810;2023-08-12T11:00:22;23.6;71.5
78514;SHT31;67814;51.976;5.810;2023-08-12T11:02:52;23.6;70.6
78514;SHT31;67814;51.976;5.810;2023-08-12T11:05:21;23.6;69.9
78514;SHT31;67814;51.976;5.810;2023-08-12T11:07:58;23.6;72.2
78514;SHT31;67814;51.976;5.810;2023-08-12T11:10:31;23.6;69.9
78514;SHT31;67814;51.976;5.810;2023-08-12T11:13:00;23.6;71.8
78514;SHT31;67814;51.976;5.810;2023-08-12T11:15:34;23.7;69.6
78514;SHT31;67814;51.976;5.810;2023-08-12T11:18:04;23.7;68.0
78514;SHT31;67814;51.976;5.810;2023-08-12T11:20:34;23.7;68.3
78514;SHT31;67814;51.976;5.810;2023-08-12T11:23:04;23.8;68.1
78514;SHT31;67814;51.976;5.810;2023-08-12T11:25:35;23.8;66.2
78514;SHT31;67814;51.976;5.810;2023-08-12T11:28:04;23.9;64.8
78514;SHT31;67814;51.976;5.810;2023-08-12T11:30:33;23.9;66.1
78514;SHT31;67814;51.976;5.810;2023-08-12T11:33:02;24.0;65.8
78514;SHT31;67814;51.976;5.810;2023-08-12T11:35:31;24.0;63.5
78514;SHT31;67814;51.976;5.810;2023-08-12T11:38:00;24.1;62.2
78514;SHT31;67814;51.976;5.810;2023-08-12T11:40:28;24.1;61.8
78514;SHT31;67814;51.976;5.810;2023-08-12T11:42:56;24.1;62.8
78514;SHT31;67814;51.976;5.810;2023-08-12T11:45:26;24.2;60.4
78514;SHT31;67814;51.976;5.810;2023-08-12T11:47:54;24.2;60.7
78514;SHT31;67814;51.976;5.810;2023-08-12T11:50:25;24.2;59.7
78514;SHT31;67814;51.976;5.810;2023-08-12T11:52:56;24.2;60.4
78514;SHT31;67814;51.976;5.810;2023-08-12T11:55:25;24.3;58.4
78514;SHT31;67814;51.976;5.810;2023-08-12T11:57:54;24.3;58.8
78514;SHT31;67814;51.976;5.810;2023-08-12T12:00:25;24.3;59.7
78514;SHT31;67814;51.976;5.810;2023-08-12T12:02:55;24.3;62.0
78514;SHT31;67814;51.976;5.810;2023-08-12T12:05:27;24.4;63.8
78514;SHT31;67814;51.976;5.810;2023-08-12T12:07:56;24.5;59.2
78514;SHT31;67814;51.976;5.810;2023-08-12T12:10:29;24.5;58.6
78514;SHT31;67814;51.976;5.810;2023-08-12T12:13:00;24.6;57.9
78514;SHT31;67814;51.976;5.810;2023-08-12T12:15:29;24.6;59.0
78514;SHT31;67814;51.976;5.810;2023-08-12T12:17:58;24.6;58.8
78514;SHT31;67814;51.976;5.810;2023-08-12T12:20:27;24.7;59.7
78514;SHT31;67814;51.976;5.810;2023-08-12T12:22:55;24.7;58.9
78514;SHT31;67814;51.976;5.810;2023-08-12T12:25:23;24.8;59.9
78514;SHT31;67814;51.976;5.810;2023-08-12T12:27:52;24.8;61.5
78514;SHT31;67814;51.976;5.810;2023-08-12T12:30:21;24.9;58.5
78514;SHT31;67814;51.976;5.810;2023-08-12T12:32:49;24.9;59.1
78514;SHT31;67814;51.976;5.810;2023-08-12T12:35:18;25.0;57.2
78514;SHT31;67814;51.976;5.810;2023-08-12T12:37:48;25.1;56.9
78514;SHT31;67814;51.976;5.810;2023-08-12T12:40:17;25.1;57.4
78514;SHT31;67814;51.976;5.810;2023-08-12T12:42:45;25.2;56.9
78514;SHT31;67814;51.976;5.810;2023-08-12T12:45:13;25.2;57.9
78514;SHT31;67814;51.976;5.810;2023-08-12T12:47:42;25.3;56.7
78514;SHT31;67814;51.976;5.810;2023-08-12T12:50:10;25.3;57.7
78514;SHT31;67814;51.976;5.810;2023-08-12T12:52:39;25.3;59.5
78514;SHT31;67814;51.976;5.810;2023-08-12T12:55:08;25.4;56.8
78514;SHT31;67814;51.976;5.810;2023-08-12T12:57:37;25.4;57.5
78514;SHT31;67814;51.976;5.810;2023-08-12T13:00:06;25.5;56.3
78514;SHT31;67814;51.976;5.810;2023-08-12T13:02:37;25.6;57.6
78514;SHT31;67814;51.976;5.810;2023-08-12T13:05:07;25.6;56.9
78514;SHT31;67814;51.976;5.810;2023-08-12T13:07:35;25.7;55.2
78514;SHT31;67814;51.976;5.810;2023-08-12T13:10:04;25.8;52.3
78514;SHT31;67814;51.976;5.810;2023-08-12T13:12:33;25.8;54.2
78514;SHT31;67814;51.976;5.810;2023-08-12T13:15:01;25.9;53.3
78514;SHT31;67814;51.976;5.810;2023-08-12T13:17:29;25.9;53.5
78514;SHT31;67814;51.976;5.810;2023-08-12T13:19:58;26.0;55.3
78514;SHT31;67814;51.976;5.810;2023-08-12T13:22:28;26.0;53.3
78514;SHT31;67814;51.976;5.810;2023-08-12T13:24:56;26.0;51.6
78514;SHT31;67814;51.976;5.810;2023-08-12T13:27:24;26.0;52.9
78514;SHT31;67814;51.976;5.810;2023-08-12T13:29:53;26.0;53.0
78514;SHT31;67814;51.976;5.810;2023-08-12T13:32:21;26.0;51.9
78514;SHT31;67814;51.976;5.810;2023-08-12T13:34:49;26.0;54.5
78514;SHT31;67814;51.976;5.810;2023-08-12T13:37:18;26.0;51.8
78514;SHT31;67814;51.976;5.810;2023-08-12T13:39:46;26.0;55.5
78514;SHT31;67814;51.976;5.810;2023-08-12T13:42:15;26.0;51.7
78514;SHT31;67814;51.976;5.810;2023-08-12T13:44:43;26.0;50.1
78514;SHT31;67814;51.976;5.810;2023-08-12T13:47:12;26.0;50.7
78514;SHT31;67814;51.976;5.810;2023-08-12T13:49:40;26.1;50.4
78514;SHT31;67814;51.976;5.810;2023-08-12T13:52:10;26.1;50.2
78514;SHT31;67814;51.976;5.810;2023-08-12T13:54:39;26.1;47.0
78514;SHT31;67814;51.976;5.810;2023-08-12T13:57:07;26.2;49.0
78514;SHT31;67814;51.976;5.810;2023-08-12T13:59:36;26.2;50.3
78514;SHT31;67814;51.976;5.810;2023-08-12T14:02:04;26.2;50.4
78514;SHT31;67814;51.976;5.810;2023-08-12T14:04:32;26.1;52.0
78514;SHT31;67814;51.976;5.810;2023-08-12T14:07:01;26.1;50.3
78514;SHT31;67814;51.976;5.810;2023-08-12T14:09:29;26.1;50.1
78514;SHT31;67814;51.976;5.810;2023-08-12T14:11:58;26.1;49.4
78514;SHT31;67814;51.976;5.810;2023-08-12T14:14:27;26.1;50.1
78514;SHT31;67814;51.976;5.810;2023-08-12T14:16:56;26.1;48.8
78514;SHT31;67814;51.976;5.810;2023-08-12T14:19:24;26.1;48.4
78514;SHT31;67814;51.976;5.810;2023-08-12T14:21:53;26.0;48.7
78514;SHT31;67814;51.976;5.810;2023-08-12T14:24:21;26.0;47.0
78514;SHT31;67814;51.976;5.810;2023-08-12T14:26:50;26.0;48.4
78514;SHT31;67814;51.976;5.810;2023-08-12T14:29:19;25.9;48.1
78514;SHT31;67814;51.976;5.810;2023-08-12T14:31:47;25.9;49.1
78514;SHT31;67814;51.976;5.810;2023-08-12T14:34:16;25.9;47.2
78514;SHT31;67814;51.976;5.810;2023-08-12T14:36:44;25.9;47.5
78514;SHT31;67814;51.976;5.810;2023-08-12T14:39:14;25.9;48.8
78514;SHT31;67814;51.976;5.810;2023-08-12T14:41:42;25.8;48.4
78514;SHT31;67814;51.976;5.810;2023-08-12T14:44:11;25.8;47.7
78514;SHT31;67814;51.976;5.810;2023-08-12T14:46:39;25.7;49.1
78514;SHT31;67814;51.976;5.810;2023-08-12T14:49:08;25.7;48.0
78514;SHT31;67814;51.976;5.810;2023-08-12T14:51:37;25.6;47.9
78514;SHT31;67814;51.976;5.810;2023-08-12T14:54:06;25.6;47.5
78514;SHT31;67814;51.976;5.810;2023-08-12T14:56:34;25.5;47.6
78514;SHT31;67814;51.976;5.810;2023-08-12T14:59:03;25.5;48.0
78514;SHT31;67814;51.976;5.810;2023-08-12T15:01:32;25.5;48.6
78514;SHT31;67814;51.976;5.810;2023-08-12T15:04:00;25.4;49.1
78514;SHT31;67814;51.976;5.810;2023-08-12T15:06:29;25.4;50.8
78514;SHT31;67814;51.976;5.810;2023-08-12T15:08:57;25.4;48.8
78514;SHT31;67814;51.976;5.810;2023-08-12T15:11:25;25.4;47.4
78514;SHT31;67814;51.976;5.810;2023-08-12T15:13:55;25.3;47.7
78514;SHT31;67814;51.976;5.810;2023-08-12T15:16:24;25.3;47.4
78514;SHT31;67814;51.976;5.810;2023-08-12T15:18:52;25.3;48.3
78514;SHT31;67814;51.976;5.810;2023-08-12T15:21:21;25.3;48.4
78514;SHT31;67814;51.976;5.810;2023-08-12T15:23:49;25.3;49.5
78514;SHT31;67814;51.976;5.810;2023-08-12T15:26:18;25.3;49.3
78514;SHT31;67814;51.976;5.810;2023-08-12T15:28:48;25.3;49.0
78514;SHT31;67814;51.976;5.810;2023-08-12T15:31:16;25.3;48.3
78514;SHT31;67814;51.976;5.810;2023-08-12T15:33:45;25.3;49.0
78514;SHT31;67814;51.976;5.810;2023-08-12T15:36:14;25.4;47.4
78514;SHT31;67814;51.976;5.810;2023-08-12T15:38:42;25.4;47.7
78514;SHT31;67814;51.976;5.810;2023-08-12T15:41:15;25.4;47.8
78514;SHT31;67814;51.976;5.810;2023-08-12T15:43:43;25.4;47.2
78514;SHT31;67814;51.976;5.810;2023-08-12T15:46:12;25.4;48.2
78514;SHT31;67814;51.976;5.810;2023-08-12T15:48:40;25.4;48.6
78514;SHT31;67814;51.976;5.810;2023-08-12T15:51:09;25.3;50.0
78514;SHT31;67814;51.976;5.810;2023-08-12T15:53:38;25.3;49.8
78514;SHT31;67814;51.976;5.810;2023-08-12T15:56:06;25.3;48.5
78514;SHT31;67814;51.976;5.810;2023-08-12T15:58:34;25.3;48.0
78514;SHT31;67814;51.976;5.810;2023-08-12T16:01:03;25.3;49.5
78514;SHT31;67814;51.976;5.810;2023-08-12T16:03:32;25.3;50.0
78514;SHT31;67814;51.976;5.810;2023-08-12T16:06:01;25.2;51.6
78514;SHT31;67814;51.976;5.810;2023-08-12T16:08:30;25.2;50.2
78514;SHT31;67814;51.976;5.810;2023-08-12T16:10:58;25.2;51.3
78514;SHT31;67814;51.976;5.810;2023-08-12T16:13:27;25.2;51.3
78514;SHT31;67814;51.976;5.810;2023-08-12T16:15:55;25.3;50.3